sensor_id;sensor_type;location;lat;lon;timestamp;temperature;humidity
3578;DHT22;1803;48.494;9.696;2022-09-09T03:02:38;13.30;99.90
3578;DHT22;1803;48.494;9.696;2022-09-09T03:05:05;13.30;99.90
3578;DHT22;1803;48.494;9.696;2022-09-09T03:07:30;13.40;99.90
3578;DHT22;1803;48.494;9.696;2022-09-09T03:09:56;13.40;99.90
3578;DHT22;1803;48.494;9.696;2022-09-09T03:12:21;13.40;99.90
3578;DHT22;1803;48.494;9.696;2022-09-09T03:14:47;13.50;99.90
3578;DHT22;1803;48.494;9.696;2022-09-09T03:17:12;13.50;99.90
3578;DHT22;1803;48.494;9.696;2022-09-09T03:19:37;13.50;99.90
3578;DHT22;1803;48.494;9.696;2022-09-09T03:22:03;13.60;99.90
3578;DHT22;1803;48.494;9.696;2022-09-09T03:24:29;13.70;99.90
3578;DHT22;1803;48.494;9.696;2022-09-09T03:26:55;13.80;99.90
3578;DHT22;1803;48.494;9.696;2022-09-09T03:29:21;13.90;99.90
3578;DHT22;1803;48.494;9.696;2022-09-09T03:31:46;13.90;99.90
3578;DHT22;1803;48.494;9.696;2022-09-09T03:34:12;13.90;99.90
3578;DHT22;1803;48.494;9.696;2022-09-09T03:36:38;14.00;99.90
3578;DHT22;1803;48.494;9.696;2022-09-09T03:39:04;14.00;99.90
3578;DHT22;1803;48.494;9.696;2022-09-09T03:41:30;14.00;99.90
3578;DHT22;1803;48.494;9.696;2022-09-09T03:43:55;14.00;99.90
3578;DHT22;1803;48.494;9.696;2022-09-09T03:46:21;14.10;99.90
3578;DHT22;1803;48.494;9.696;2022-09-09T03:48:47;14.10;99.90
3578;DHT22;1803;48.494;9.696;2022-09-09T03:51:13;14.20;99.90
3578;DHT22;1803;48.494;9.696;2022-09-09T03:53:38;14.20;99.90
3578;DHT22;1803;48.494;9.696;2022-09-09T03:56:04;14.10;99.90
3578;DHT22;1803;48.494;9.696;2022-09-09T03:58:32;14.20;99.90
3578;DHT22;1803;48.494;9.696;2022-09-09T04:01:02;14.20;99.90
3578;DHT22;1803;48.494;9.696;2022-09-09T04:03:28;14.20;99.90
3578;DHT22;1803;48.494;9.696;2022-09-09T04:05:54;14.30;99.90
3578;DHT22;1803;48.494;9.696;2022-09-09T04:08:20;14.30;99.90
3578;DHT22;1803;48.494;9.696;2022-09-09T04:10:46;14.30;99.90
3578;DHT22;1803;48.494;9.696;2022-09-09T04:13:13;14.30;99.90
3578;DHT22;1803;48.494;9.696;2022-09-09T04:15:39;14.20;99.90
3578;DHT22;1803;48.494;9.696;2022-09-09T04:18:04;14.20;99.90
3578;DHT22;1803;48.494;9.696;2022-09-09T04:20:31;14.20;99.90
3578;DHT22;1803;48.494;9.696;2022-09-09T04:22:56;14.20;99.90
3578;DHT22;1803;48.494;9.696;2022-09-09T04:25:22;14.20;99.90
3578;DHT22;1803;48.494;9.696;2022-09-09T04:27:47;14.20;99.90
3578;DHT22;1803;48.494;9.696;2022-09-09T04:30:13;14.10;99.90
3578;DHT22;1803;48.494;9.696;2022-09-09T04:32:38;14.10;99.90
3578;DHT22;1803;48.494;9.696;2022-09-09T04:35:04;14.00;99.90
3578;DHT22;1803;48.494;9.696;2022-09-09T04:37:29;14.00;99.90
3578;DHT22;1803;48.494;9.696;2022-09-09T04:39:55;14.00;99.90
3578;DHT22;1803;48.494;9.696;2022-09-09T04:42:21;14.00;99.90
3578;DHT22;1803;48.494;9.696;2022-09-09T04:44:46;14.00;99.90
3578;DHT22;1803;48.494;9.696;2022-09-09T04:47:12;14.10;99.90
3578;DHT22;1803;48.494;9.696;2022-09-09T04:49:38;14.00;99.90
3578;DHT22;1803;48.494;9.696;2022-09-09T04:52:03;14.00;99.90
3578;DHT22;1803;48.494;9.696;2022-09-09T04:54:29;13.90;99.90
3578;DHT22;1803;48.494;9.696;2022-09-09T04:56:55;13.90;99.90
3578;DHT22;1803;48.494;9.696;2022-09-09T04:59:20;13.90;99.90
3578;DHT22;1803;48.494;9.696;2022-09-09T05:01:47;13.90;99.90
3578;DHT22;1803;48.494;9.696;2022-09-09T05:04:12;13.90;99.90
3578;DHT22;1803;48.494;9.696;2022-09-09T05:06:39;13.90;99.90
3578;DHT22;1803;48.494;9.696;2022-09-09T05:09:05;13.90;99.90
3578;DHT22;1803;48.494;9.696;2022-09-09T05:11:31;13.90;99.90
3578;DHT22;1803;48.494;9.696;2022-09-09T05:13:57;13.90;99.90
3578;DHT22;1803;48.494;9.696;2022-09-09T05:16:23;13.90;99.90
3578;DHT22;1803;48.494;9.696;2022-09-09T05:18:48;13.90;99.90
3578;DHT22;1803;48.494;9.696;2022-09-09T05:21:16;13.90;99.90
3578;DHT22;1803;48.494;9.696;2022-09-09T05:23:41;13.90;99.90
3578;DHT22;1803;48.494;9.696;2022-09-09T05:26:09;13.80;99.90
3578;DHT22;1803;48.494;9.696;2022-09-09T05:28:36;13.80;99.90
3578;DHT22;1803;48.494;9.696;2022-09-09T05:31:03;13.80;99.90
3578;DHT22;1803;48.494;9.696;2022-09-09T05:33:33;13.80;99.90
3578;DHT22;1803;48.494;9.696;2022-09-09T05:36:03;13.90;99.90
3578;DHT22;1803;48.494;9.696;2022-09-09T05:38:30;14.00;99.90
3578;DHT22;1803;48.494;9.696;2022-09-09T05:40:55;14.00;99.90
3578;DHT22;1803;48.494;9.696;2022-09-09T05:43:22;14.10;99.90
3578;DHT22;1803;48.494;9.696;2022-09-09T05:46:11;14.10;99.90
3578;DHT22;1803;48.494;9.696;2022-09-09T05:48:42;14.10;99.90
3578;DHT22;1803;48.494;9.696;2022-09-09T05:51:11;14.20;99.90
3578;DHT22;1803;48.494;9.696;2022-09-09T05:53:43;14.30;99.90
3578;DHT22;1803;48.494;9.696;2022-09-09T05:56:09;14.30;99.90
3578;DHT22;1803;48.494;9.696;2022-09-09T05:58:36;14.50;99.90
3578;DHT22;1803;48.494;9.696;2022-09-09T06:01:05;14.60;99.90
3578;DHT22;1803;48.494;9.696;2022-09-09T06:03:32;14.80;99.90
3578;DHT22;1803;48.494;9.696;2022-09-09T06:06:01;15.00;99.90
3578;DHT22;1803;48.494;9.696;2022-09-09T06:08:27;15.10;99.90
3578;DHT22;1803;48.494;9.696;2022-09-09T06:10:53;15.30;99.90
3578;DHT22;1803;48.494;9.696;2022-09-09T06:13:18;15.40;99.90
3578;DHT22;1803;48.494;9.696;2022-09-09T06:15:50;15.40;99.90
3578;DHT22;1803;48.494;9.696;2022-09-09T06:18:16;15.60;99.90
3578;DHT22;1803;48.494;9.696;2022-09-09T06:20:53;15.70;99.90
3578;DHT22;1803;48.494;9.696;2022-09-09T06:23:19;15.80;99.90
3578;DHT22;1803;48.494;9.696;2022-09-09T06:25:45;16.10;99.90
3578;DHT22;1803;48.494;9.696;2022-09-09T06:28:11;16.40;99.90
3578;DHT22;1803;48.494;9.696;2022-09-09T06:30:36;16.80;99.90
3578;DHT22;1803;48.494;9.696;2022-09-09T06:33:02;17.10;99.90
3578;DHT22;1803;48.494;9.696;2022-09-09T06:35:28;17.40;99.90
3578;DHT22;1803;48.494;9.696;2022-09-09T06:37:54;17.70;99.90
3578;DHT22;1803;48.494;9.696;2022-09-09T06:40:19;18.00;99.90
3578;DHT22;1803;48.494;9.696;2022-09-09T06:42:45;18.20;99.90
3578;DHT22;1803;48.494;9.696;2022-09-09T06:45:10;18.30;99.90
3578;DHT22;1803;48.494;9.696;2022-09-09T06:47:36;18.50;99.90
3578;DHT22;1803;48.494;9.696;2022-09-09T06:50:02;18.70;99.90
3578;DHT22;1803;48.494;9.696;2022-09-09T06:52:27;20.10;99.90
3578;DHT22;1803;48.494;9.696;2022-09-09T06:58:53;24.20;99.90
3578;DHT22;1803;48.494;9.696;2022-09-09T07:01:21;26.30;99.90
3578;DHT22;1803;48.494;9.696;2022-09-09T07:03:47;26.30;99.90
3578;DHT22;1803;48.494;9.696;2022-09-09T07:06:15;28.30;99.90
3578;DHT22;1803;48.494;9.696;2022-09-09T07:08:43;29.50;98.90
3578;DHT22;1803;48.494;9.696;2022-09-09T07:11:09;29.90;95.60
3578;DHT22;1803;48.494;9.696;2022-09-09T07:13:35;31.80;90.60
3578;DHT22;1803;48.494;9.696;2022-09-09T07:16:09;33.20;82.70
3578;DHT22;1803;48.494;9.696;2022-09-09T07:18:35;33.80;74.70
3578;DHT22;1803;48.494;9.696;2022-09-09T07:21:01;32.20;74.10
3578;DHT22;1803;48.494;9.696;2022-09-09T07:23:27;32.80;72.70
3578;DHT22;1803;48.494;9.696;2022-09-09T07:25:53;30.80;74.10
3578;DHT22;1803;48.494;9.696;2022-09-09T07:28:19;28.80;81.00
3578;DHT22;1803;48.494;9.696;2022-09-09T07:30:52;27.30;88.00
3578;DHT22;1803;48.494;9.696;2022-09-09T07:33:18;26.10;89.70
3578;DHT22;1803;48.494;9.696;2022-09-09T07:35:45;26.40;92.50
3578;DHT22;1803;48.494;9.696;2022-09-09T07:38:11;26.00;93.00
3578;DHT22;1803;48.494;9.696;2022-09-09T07:40:36;25.10;93.70
3578;DHT22;1803;48.494;9.696;2022-09-09T07:43:02;24.70;94.40
3578;DHT22;1803;48.494;9.696;2022-09-09T07:45:28;23.90;95.40
3578;DHT22;1803;48.494;9.696;2022-09-09T07:47:54;23.50;97.00
3578;DHT22;1803;48.494;9.696;2022-09-09T07:50:22;23.10;98.70
3578;DHT22;1803;48.494;9.696;2022-09-09T07:52:49;23.10;99.90
3578;DHT22;1803;48.494;9.696;2022-09-09T07:55:14;23.20;99.90
3578;DHT22;1803;48.494;9.696;2022-09-09T07:57:40;23.60;99.90
3578;DHT22;1803;48.494;9.696;2022-09-09T08:00:06;23.40;99.90
3578;DHT22;1803;48.494;9.696;2022-09-09T08:02:32;23.20;99.90
3578;DHT22;1803;48.494;9.696;2022-09-09T08:04:57;22.80;99.90
3578;DHT22;1803;48.494;9.696;2022-09-09T08:07:23;22.50;99.90
3578;DHT22;1803;48.494;9.696;2022-09-09T08:09:48;22.60;99.90
3578;DHT22;1803;48.494;9.696;2022-09-09T08:12:15;22.70;99.90
3578;DHT22;1803;48.494;9.696;2022-09-09T08:14:40;22.70;99.90
3578;DHT22;1803;48.494;9.696;2022-09-09T08:17:06;22.40;99.90
3578;DHT22;1803;48.494;9.696;2022-09-09T08:19:32;22.30;99.90
3578;DHT22;1803;48.494;9.696;2022-09-09T08:22:01;22.40;99.90
3578;DHT22;1803;48.494;9.696;2022-09-09T08:24:28;22.50;99.90
3578;DHT22;1803;48.494;9.696;2022-09-09T08:26:53;22.50;99.90
3578;DHT22;1803;48.494;9.696;2022-09-09T08:29:19;22.40;99.90
3578;DHT22;1803;48.494;9.696;2022-09-09T08:31:49;22.30;99.90
3578;DHT22;1803;48.494;9.696;2022-09-09T08:34:16;22.70;99.90
3578;DHT22;1803;48.494;9.696;2022-09-09T08:36:46;23.00;99.90
3578;DHT22;1803;48.494;9.696;2022-09-09T08:39:14;23.10;99.90
3578;DHT22;1803;48.494;9.696;2022-09-09T08:44:25;23.40;99.90
3578;DHT22;1803;48.494;9.696;2022-09-09T08:52:19;25.20;99.90
3578;DHT22;1803;48.494;9.696;2022-09-09T08:54:47;25.00;99.90
3578;DHT22;1803;48.494;9.696;2022-09-09T08:57:21;24.70;99.90
3578;DHT22;1803;48.494;9.696;2022-09-09T08:59:49;24.40;99.90
3578;DHT22;1803;48.494;9.696;2022-09-09T09:02:24;24.20;99.90
3578;DHT22;1803;48.494;9.696;2022-09-09T09:05:22;24.10;99.90
3578;DHT22;1803;48.494;9.696;2022-09-09T09:08:07;23.90;99.90
3578;DHT22;1803;48.494;9.696;2022-09-09T09:10:49;23.50;99.90
3578;DHT22;1803;48.494;9.696;2022-09-09T09:13:21;22.90;99.90
3578;DHT22;1803;48.494;9.696;2022-09-09T09:16:00;22.80;99.90
3578;DHT22;1803;48.494;9.696;2022-09-09T09:18:27;22.80;99.90
3578;DHT22;1803;48.494;9.696;2022-09-09T09:21:16;22.90;99.90
3578;DHT22;1803;48.494;9.696;2022-09-09T09:23:59;23.10;99.90
3578;DHT22;1803;48.494;9.696;2022-09-09T09:26:31;23.40;99.90
3578;DHT22;1803;48.494;9.696;2022-09-09T09:28:59;23.60;99.90
3578;DHT22;1803;48.494;9.696;2022-09-09T09:31:26;23.40;99.90
3578;DHT22;1803;48.494;9.696;2022-09-09T09:33:55;23.10;99.90
3578;DHT22;1803;48.494;9.696;2022-09-09T09:36:25;22.90;99.90
3578;DHT22;1803;48.494;9.696;2022-09-09T09:38:59;22.70;99.90
3578;DHT22;1803;48.494;9.696;2022-09-09T09:41:35;22.70;99.90
3578;DHT22;1803;48.494;9.696;2022-09-09T09:44:03;22.80;99.90
3578;DHT22;1803;48.494;9.696;2022-09-09T09:46:30;22.80;99.90
3578;DHT22;1803;48.494;9.696;2022-09-09T09:49:04;23.00;99.90
3578;DHT22;1803;48.494;9.696;2022-09-09T09:51:31;23.60;99.90
3578;DHT22;1803;48.494;9.696;2022-09-09T09:54:33;23.60;99.90
3578;DHT22;1803;48.494;9.696;2022-09-09T09:57:14;23.60;99.90
3578;DHT22;1803;48.494;9.696;2022-09-09T09:59:42;24.00;99.90
3578;DHT22;1803;48.494;9.696;2022-09-09T10:02:22;24.60;99.90
3578;DHT22;1803;48.494;9.696;2022-09-09T10:05:05;25.00;99.90
3578;DHT22;1803;48.494;9.696;2022-09-09T10:07:31;25.30;99.80
3578;DHT22;1803;48.494;9.696;2022-09-09T10:09:58;25.40;99.90
3578;DHT22;1803;48.494;9.696;2022-09-09T10:20:51;25.40;98.50
3578;DHT22;1803;48.494;9.696;2022-09-09T10:34:51;23.90;96.50
3578;DHT22;1803;48.494;9.696;2022-09-09T10:40:35;23.80;96.00
3578;DHT22;1803;48.494;9.696;2022-09-09T10:43:37;24.20;96.90
3578;DHT22;1803;48.494;9.696;2022-09-09T10:56:58;23.70;96.50
3578;DHT22;1803;48.494;9.696;2022-09-09T10:59:33;23.40;95.50
3578;DHT22;1803;48.494;9.696;2022-09-09T11:02:10;23.20;96.40
3578;DHT22;1803;48.494;9.696;2022-09-09T11:07:10;23.60;97.40
3578;DHT22;1803;48.494;9.696;2022-09-09T11:09:41;23.90;97.40
3578;DHT22;1803;48.494;9.696;2022-09-09T11:12:13;24.40;98.10
3578;DHT22;1803;48.494;9.696;2022-09-09T11:14:46;24.90;96.90
3578;DHT22;1803;48.494;9.696;2022-09-09T11:17:28;24.70;95.20
3578;DHT22;1803;48.494;9.696;2022-09-09T11:19:55;24.50;94.30
3578;DHT22;1803;48.494;9.696;2022-09-09T11:25:00;23.70;94.00
3578;DHT22;1803;48.494;9.696;2022-09-09T11:33:09;23.40;95.00
3578;DHT22;1803;48.494;9.696;2022-09-09T11:38:49;24.20;92.80
3578;DHT22;1803;48.494;9.696;2022-09-09T11:41:19;24.10;91.20
3578;DHT22;1803;48.494;9.696;2022-09-09T11:43:51;23.90;92.10
3578;DHT22;1803;48.494;9.696;2022-09-09T11:46:22;23.80;91.60
3578;DHT22;1803;48.494;9.696;2022-09-09T11:49:00;23.50;90.00
3578;DHT22;1803;48.494;9.696;2022-09-09T11:51:28;23.40;91.10
3578;DHT22;1803;48.494;9.696;2022-09-09T11:54:26;23.30;90.30
3578;DHT22;1803;48.494;9.696;2022-09-09T11:56:54;23.30;91.40
3578;DHT22;1803;48.494;9.696;2022-09-09T11:59:22;23.40;91.60
3578;DHT22;1803;48.494;9.696;2022-09-09T12:07:33;23.00;91.50
3578;DHT22;1803;48.494;9.696;2022-09-09T12:12:34;23.40;91.50
3578;DHT22;1803;48.494;9.696;2022-09-09T12:17:41;23.20;87.20
3578;DHT22;1803;48.494;9.696;2022-09-09T12:28:11;22.90;90.30
3578;DHT22;1803;48.494;9.696;2022-09-09T12:33:15;22.80;90.10
3578;DHT22;1803;48.494;9.696;2022-09-09T12:35:43;22.90;90.60
3578;DHT22;1803;48.494;9.696;2022-09-09T12:38:17;22.90;88.60
3578;DHT22;1803;48.494;9.696;2022-09-09T12:40:54;23.00;88.10
3578;DHT22;1803;48.494;9.696;2022-09-09T12:43:22;23.10;84.00
3578;DHT22;1803;48.494;9.696;2022-09-09T12:45:50;23.10;88.40
3578;DHT22;1803;48.494;9.696;2022-09-09T12:48:27;23.40;88.20
3578;DHT22;1803;48.494;9.696;2022-09-09T12:50:53;23.40;85.70
3578;DHT22;1803;48.494;9.696;2022-09-09T12:53:22;23.60;84.30
3578;DHT22;1803;48.494;9.696;2022-09-09T12:55:50;23.40;84.90
3578;DHT22;1803;48.494;9.696;2022-09-09T12:58:17;23.20;90.50
3578;DHT22;1803;48.494;9.696;2022-09-09T13:00:49;23.10;90.00
3578;DHT22;1803;48.494;9.696;2022-09-09T13:03:17;23.00;91.60
3578;DHT22;1803;48.494;9.696;2022-09-09T13:05:43;22.90;92.70
3578;DHT22;1803;48.494;9.696;2022-09-09T13:08:10;22.90;93.30
3578;DHT22;1803;48.494;9.696;2022-09-09T13:10:37;22.70;92.50
3578;DHT22;1803;48.494;9.696;2022-09-09T13:13:04;22.40;92.60
3578;DHT22;1803;48.494;9.696;2022-09-09T13:15:30;22.20;93.70
3578;DHT22;1803;48.494;9.696;2022-09-09T13:17:57;22.40;95.40
3578;DHT22;1803;48.494;9.696;2022-09-09T13:20:25;22.60;94.50
3578;DHT22;1803;48.494;9.696;2022-09-09T13:22:51;22.60;93.70
3578;DHT22;1803;48.494;9.696;2022-09-09T13:27:59;22.70;94.90
3578;DHT22;1803;48.494;9.696;2022-09-09T13:30:28;22.70;94.50
3578;DHT22;1803;48.494;9.696;2022-09-09T13:33:00;22.80;94.60
3578;DHT22;1803;48.494;9.696;2022-09-09T13:35:26;22.70;94.70
3578;DHT22;1803;48.494;9.696;2022-09-09T13:37:52;22.60;94.80
3578;DHT22;1803;48.494;9.696;2022-09-09T13:40:19;22.70;94.40
3578;DHT22;1803;48.494;9.696;2022-09-09T13:42:45;22.80;94.20
3578;DHT22;1803;48.494;9.696;2022-09-09T13:45:18;22.80;92.90
3578;DHT22;1803;48.494;9.696;2022-09-09T13:47:45;22.80;94.00
3578;DHT22;1803;48.494;9.696;2022-09-09T13:50:25;22.70;94.20
3578;DHT22;1803;48.494;9.696;2022-09-09T13:52:54;22.70;94.80
3578;DHT22;1803;48.494;9.696;2022-09-09T13:55:21;22.50;94.00
3578;DHT22;1803;48.494;9.696;2022-09-09T13:57:50;22.30;94.90
3578;DHT22;1803;48.494;9.696;2022-09-09T14:00:16;22.00;94.10
3578;DHT22;1803;48.494;9.696;2022-09-09T14:02:42;22.10;94.70
3578;DHT22;1803;48.494;9.696;2022-09-09T14:05:09;22.20;94.20
3578;DHT22;1803;48.494;9.696;2022-09-09T14:07:35;22.20;94.30
3578;DHT22;1803;48.494;9.696;2022-09-09T14:10:00;22.20;95.50
3578;DHT22;1803;48.494;9.696;2022-09-09T14:12:25;21.90;95.00
3578;DHT22;1803;48.494;9.696;2022-09-09T14:14:51;21.80;95.20
3578;DHT22;1803;48.494;9.696;2022-09-09T14:17:16;21.80;95.50
3578;DHT22;1803;48.494;9.696;2022-09-09T14:19:42;21.60;94.80
3578;DHT22;1803;48.494;9.696;2022-09-09T14:22:08;21.40;94.50
3578;DHT22;1803;48.494;9.696;2022-09-09T14:24:33;21.40;95.60
3578;DHT22;1803;48.494;9.696;2022-09-09T14:26:58;21.40;94.90
3578;DHT22;1803;48.494;9.696;2022-09-09T14:29:24;21.40;95.40
3578;DHT22;1803;48.494;9.696;2022-09-09T14:31:51;21.50;94.40
3578;DHT22;1803;48.494;9.696;2022-09-09T14:34:17;21.60;95.90
3578;DHT22;1803;48.494;9.696;2022-09-09T14:36:43;21.80;96.10
3578;DHT22;1803;48.494;9.696;2022-09-09T14:39:10;21.80;95.50
3578;DHT22;1803;48.494;9.696;2022-09-09T14:41:36;21.80;95.30
3578;DHT22;1803;48.494;9.696;2022-09-09T14:44:01;21.80;94.70
3578;DHT22;1803;48.494;9.696;2022-09-09T14:46:27;21.70;95.50
3578;DHT22;1803;48.494;9.696;2022-09-09T14:48:52;21.80;95.50
3578;DHT22;1803;48.494;9.696;2022-09-09T14:51:20;21.90;94.20
3578;DHT22;1803;48.494;9.696;2022-09-09T14:53:47;22.00;95.20
3578;DHT22;1803;48.494;9.696;2022-09-09T14:56:14;22.20;94.20
3578;DHT22;1803;48.494;9.696;2022-09-09T14:58:40;22.10;94.60
3578;DHT22;1803;48.494;9.696;2022-09-09T15:01:15;22.00;93.80
3578;DHT22;1803;48.494;9.696;2022-09-09T15:03:42;21.70;93.50
3578;DHT22;1803;48.494;9.696;2022-09-09T15:06:09;21.60;93.80
3578;DHT22;1803;48.494;9.696;2022-09-09T15:08:35;21.50;94.00
3578;DHT22;1803;48.494;9.696;2022-09-09T15:11:02;21.20;94.10
3578;DHT22;1803;48.494;9.696;2022-09-09T15:13:27;21.20;94.90
3578;DHT22;1803;48.494;9.696;2022-09-09T15:15:53;21.00;94.00
3578;DHT22;1803;48.494;9.696;2022-09-09T15:18:19;20.90;94.00
3578;DHT22;1803;48.494;9.696;2022-09-09T15:20:45;20.70;94.00
3578;DHT22;1803;48.494;9.696;2022-09-09T15:23:11;20.70;94.70
3578;DHT22;1803;48.494;9.696;2022-09-09T15:25:37;20.70;94.50
3578;DHT22;1803;48.494;9.696;2022-09-09T15:28:02;20.60;95.20
3578;DHT22;1803;48.494;9.696;2022-09-09T15:30:28;20.50;94.90
3578;DHT22;1803;48.494;9.696;2022-09-09T15:32:53;20.40;94.90
3578;DHT22;1803;48.494;9.696;2022-09-09T15:35:20;20.40;95.90
3578;DHT22;1803;48.494;9.696;2022-09-09T15:37:45;20.40;95.90
3578;DHT22;1803;48.494;9.696;2022-09-09T15:40:11;20.50;95.90
3578;DHT22;1803;48.494;9.696;2022-09-09T15:42:36;20.50;96.10
3578;DHT22;1803;48.494;9.696;2022-09-09T15:45:02;20.40;95.80
3578;DHT22;1803;48.494;9.696;2022-09-09T15:47:30;20.40;95.30
3578;DHT22;1803;48.494;9.696;2022-09-09T15:49:55;20.30;95.30
3578;DHT22;1803;48.494;9.696;2022-09-09T15:52:21;20.20;95.20
3578;DHT22;1803;48.494;9.696;2022-09-09T15:54:46;20.00;95.40
3578;DHT22;1803;48.494;9.696;2022-09-09T15:57:12;19.90;94.70
3578;DHT22;1803;48.494;9.696;2022-09-09T15:59:38;19.70;94.80
3578;DHT22;1803;48.494;9.696;2022-09-09T16:02:03;19.50;95.00
3578;DHT22;1803;48.494;9.696;2022-09-09T16:04:29;19.40;95.40
3578;DHT22;1803;48.494;9.696;2022-09-09T16:06:56;19.40;96.20
3578;DHT22;1803;48.494;9.696;2022-09-09T16:09:23;19.30;96.20
3578;DHT22;1803;48.494;9.696;2022-09-09T16:11:49;19.40;96.50
3578;DHT22;1803;48.494;9.696;2022-09-09T16:14:14;19.40;96.40
3578;DHT22;1803;48.494;9.696;2022-09-09T16:16:44;19.30;96.20
3578;DHT22;1803;48.494;9.696;2022-09-09T16:19:10;19.10;96.30
3578;DHT22;1803;48.494;9.696;2022-09-09T16:21:44;19.00;97.00
3578;DHT22;1803;48.494;9.696;2022-09-09T16:24:11;18.80;97.00
3578;DHT22;1803;48.494;9.696;2022-09-09T16:26:37;18.80;97.40
3578;DHT22;1803;48.494;9.696;2022-09-09T16:29:03;18.80;97.80
3578;DHT22;1803;48.494;9.696;2022-09-09T16:31:29;18.80;97.80
3578;DHT22;1803;48.494;9.696;2022-09-09T16:33:55;18.70;97.70
3578;DHT22;1803;48.494;9.696;2022-09-09T16:36:24;18.70;97.70
3578;DHT22;1803;48.494;9.696;2022-09-09T16:38:52;18.70;97.70
3578;DHT22;1803;48.494;9.696;2022-09-09T16:41:19;18.70;97.10
3578;DHT22;1803;48.494;9.696;2022-09-09T16:43:45;18.60;96.50
3578;DHT22;1803;48.494;9.696;2022-09-09T16:46:13;18.50;96.60
3578;DHT22;1803;48.494;9.696;2022-09-09T16:48:40;18.50;96.90
3578;DHT22;1803;48.494;9.696;2022-09-09T16:51:07;18.40;96.90
3578;DHT22;1803;48.494;9.696;2022-09-09T16:53:33;18.40;96.40
3578;DHT22;1803;48.494;9.696;2022-09-09T16:56:12;18.30;96.40
3578;DHT22;1803;48.494;9.696;2022-09-09T16:58:38;18.30;97.00
3578;DHT22;1803;48.494;9.696;2022-09-09T17:01:04;18.20;96.10
3578;DHT22;1803;48.494;9.696;2022-09-09T17:03:31;18.10;96.60
3578;DHT22;1803;48.494;9.696;2022-09-09T17:05:57;18.10;96.70
3578;DHT22;1803;48.494;9.696;2022-09-09T17:08:24;18.00;95.90
3578;DHT22;1803;48.494;9.696;2022-09-09T17:10:49;17.90;95.70
3578;DHT22;1803;48.494;9.696;2022-09-09T17:13:15;17.80;96.00
3578;DHT22;1803;48.494;9.696;2022-09-09T17:15:43;17.70;96.10
3578;DHT22;1803;48.494;9.696;2022-09-09T17:18:12;17.60;96.80
3578;DHT22;1803;48.494;9.696;2022-09-09T17:20:39;17.50;96.50
3578;DHT22;1803;48.494;9.696;2022-09-09T17:23:09;17.40;96.80
3578;DHT22;1803;48.494;9.696;2022-09-09T17:25:35;17.30;97.00
3578;DHT22;1803;48.494;9.696;2022-09-09T17:28:01;17.20;97.50
3578;DHT22;1803;48.494;9.696;2022-09-09T17:30:29;17.00;97.60
3578;DHT22;1803;48.494;9.696;2022-09-09T17:32:56;16.90;97.70
3578;DHT22;1803;48.494;9.696;2022-09-09T17:35:22;16.80;98.20
3578;DHT22;1803;48.494;9.696;2022-09-09T17:37:47;16.70;98.60
3578;DHT22;1803;48.494;9.696;2022-09-09T17:40:13;16.60;99.00
3578;DHT22;1803;48.494;9.696;2022-09-09T17:42:39;16.50;99.00
3578;DHT22;1803;48.494;9.696;2022-09-09T17:45:06;16.40;99.90
3578;DHT22;1803;48.494;9.696;2022-09-09T17:47:31;16.20;99.90
3578;DHT22;1803;48.494;9.696;2022-09-09T17:49:57;16.20;99.90
3578;DHT22;1803;48.494;9.696;2022-09-09T17:52:22;16.10;99.90
3578;DHT22;1803;48.494;9.696;2022-09-09T17:54:48;16.00;99.90
3578;DHT22;1803;48.494;9.696;2022-09-09T17:57:15;16.00;99.90
3578;DHT22;1803;48.494;9.696;2022-09-09T17:59:42;15.80;99.90
3578;DHT22;1803;48.494;9.696;2022-09-09T18:02:09;15.80;99.90
3578;DHT22;1803;48.494;9.696;2022-09-09T18:04:35;15.80;99.90
3578;DHT22;1803;48.494;9.696;2022-09-09T18:07:01;15.70;99.90
3578;DHT22;1803;48.494;9.696;2022-09-09T18:09:27;15.60;99.90
3578;DHT22;1803;48.494;9.696;2022-09-09T18:11:55;15.60;99.90
3578;DHT22;1803;48.494;9.696;2022-09-09T18:14:24;15.60;99.90
3578;DHT22;1803;48.494;9.696;2022-09-09T18:16:50;15.50;99.90
3578;DHT22;1803;48.494;9.696;2022-09-09T18:19:22;15.50;99.90
3578;DHT22;1803;48.494;9.696;2022-09-09T18:21:48;15.40;99.90
3578;DHT22;1803;48.494;9.696;2022-09-09T18:24:18;15.40;99.90
3578;DHT22;1803;48.494;9.696;2022-09-09T18:26:45;15.30;99.90
3578;DHT22;1803;48.494;9.696;2022-09-09T18:29:15;15.30;99.90
3578;DHT22;1803;48.494;9.696;2022-09-09T18:31:40;15.20;99.90
3578;DHT22;1803;48.494;9.696;2022-09-09T18:34:08;15.10;99.90
3578;DHT22;1803;48.494;9.696;2022-09-09T18:36:37;15.10;99.90
3578;DHT22;1803;48.494;9.696;2022-09-09T18:39:05;15.00;99.90
3578;DHT22;1803;48.494;9.696;2022-09-09T18:41:33;15.00;99.90
3578;DHT22;1803;48.494;9.696;2022-09-09T18:44:05;14.90;99.90
3578;DHT22;1803;48.494;9.696;2022-09-09T18:46:33;14.90;99.90
3578;DHT22;1803;48.494;9.696;2022-09-09T18:48:59;14.90;99.90
3578;DHT22;1803;48.494;9.696;2022-09-09T18:51:26;14.80;99.90
3578;DHT22;1803;48.494;9.696;2022-09-09T18:54:00;14.80;99.90
3578;DHT22;1803;48.494;9.696;2022-09-09T18:56:27;14.80;99.90
3578;DHT22;1803;48.494;9.696;2022-09-09T18:58:56;14.70;99.90
3578;DHT22;1803;48.494;9.696;2022-09-09T19:01:22;14.70;99.90
3578;DHT22;1803;48.494;9.696;2022-09-09T19:03:47;14.70;99.90
3578;DHT22;1803;48.494;9.696;2022-09-09T19:06:14;14.70;99.90
3578;DHT22;1803;48.494;9.696;2022-09-09T19:08:40;14.60;99.90
3578;DHT22;1803;48.494;9.696;2022-09-09T19:11:07;14.60;99.90
3578;DHT22;1803;48.494;9.696;2022-09-09T19:13:33;14.60;99.90
3578;DHT22;1803;48.494;9.696;2022-09-09T19:16:06;14.60;99.90
3578;DHT22;1803;48.494;9.696;2022-09-09T19:18:31;14.60;99.90
3578;DHT22;1803;48.494;9.696;2022-09-09T19:21:07;14.50;99.90
3578;DHT22;1803;48.494;9.696;2022-09-09T19:23:32;14.50;99.90
3578;DHT22;1803;48.494;9.696;2022-09-09T19:26:00;14.50;99.90
3578;DHT22;1803;48.494;9.696;2022-09-09T19:28:26;14.50;99.90
3578;DHT22;1803;48.494;9.696;2022-09-09T19:30:52;14.50;99.90
3578;DHT22;1803;48.494;9.696;2022-09-09T19:33:17;14.50;99.90
3578;DHT22;1803;48.494;9.696;2022-09-09T19:35:44;14.50;99.90
3578;DHT22;1803;48.494;9.696;2022-09-09T19:38:10;14.40;99.90
3578;DHT22;1803;48.494;9.696;2022-09-09T19:40:35;14.40;99.90
3578;DHT22;1803;48.494;9.696;2022-09-09T19:43:01;14.40;99.90
3578;DHT22;1803;48.494;9.696;2022-09-09T19:45:26;14.50;99.90
3578;DHT22;1803;48.494;9.696;2022-09-09T19:47:52;14.40;99.90
3578;DHT22;1803;48.494;9.696;2022-09-09T19:50:18;14.40;99.90
3578;DHT22;1803;48.494;9.696;2022-09-09T19:52:43;14.40;99.90
3578;DHT22;1803;48.494;9.696;2022-09-09T19:55:09;14.30;99.90
3578;DHT22;1803;48.494;9.696;2022-09-09T19:57:34;14.30;99.90
3578;DHT22;1803;48.494;9.696;2022-09-09T20:00:00;14.30;99.90
3578;DHT22;1803;48.494;9.696;2022-09-09T20:02:26;14.20;99.90
3578;DHT22;1803;48.494;9.696;2022-09-09T20:04:52;14.20;99.90
3578;DHT22;1803;48.494;9.696;2022-09-09T20:07:18;14.20;99.90
3578;DHT22;1803;48.494;9.696;2022-09-09T20:09:44;14.20;99.90
3578;DHT22;1803;48.494;9.696;2022-09-09T20:12:09;14.10;99.90
3578;DHT22;1803;48.494;9.696;2022-09-09T20:14:35;14.10;99.90
3578;DHT22;1803;48.494;9.696;2022-09-09T20:17:00;14.10;99.90
3578;DHT22;1803;48.494;9.696;2022-09-09T20:19:25;14.00;99.90
3578;DHT22;1803;48.494;9.696;2022-09-09T20:21:51;14.00;99.90
3578;DHT22;1803;48.494;9.696;2022-09-09T20:24:17;14.00;99.90
3578;DHT22;1803;48.494;9.696;2022-09-09T20:26:44;13.90;99.90
3578;DHT22;1803;48.494;9.696;2022-09-09T20:29:11;13.90;99.90
3578;DHT22;1803;48.494;9.696;2022-09-09T20:31:37;13.90;99.90